createdAt,value
2018-03-27T00:00:47.076Z,0.00
2018-03-27T00:01:47.093Z,0.00
2018-03-27T00:02:47.112Z,0.00
2018-03-27T00:03:47.131Z,0.00
2018-03-27T00:04:47.148Z,0.00
2018-03-27T00:05:47.172Z,0.00
2018-03-27T00:06:47.187Z,0.00
2018-03-27T00:07:47.203Z,0.00
2018-03-27T00:08:47.222Z,0.00
2018-03-27T00:09:47.243Z,0.00
2018-03-27T00:10:47.264Z,0.00
2018-03-27T00:11:47.277Z,0.00
2018-03-27T00:12:47.293Z,0.00
2018-03-27T00:13:47.314Z,0.00
2018-03-27T00:14:47.334Z,0.00
2018-03-27T00:15:47.352Z,0.00
2018-03-27T00:16:47.371Z,0.00
2018-03-27T00:17:47.387Z,0.00
2018-03-27T00:18:47.410Z,0.00
2018-03-27T00:19:47.426Z,0.00
2018-03-27T00:20:47.442Z,0.00
2018-03-27T00:21:47.461Z,0.00
2018-03-27T00:22:47.481Z,0.00
2018-03-27T00:23:47.507Z,0.00
2018-03-27T00:24:47.516Z,0.00
2018-03-27T00:25:47.541Z,0.00
2018-03-27T00:26:47.556Z,0.00
2018-03-27T00:27:47.577Z,0.00
2018-03-27T00:28:47.591Z,0.00
2018-03-27T00:29:47.613Z,0.00
2018-03-27T00:30:47.634Z,0.00
2018-03-27T00:31:47.647Z,0.00
2018-03-27T00:32:47.671Z,0.00
2018-03-27T00:33:47.689Z,0.00
2018-03-27T00:34:47.701Z,0.00
2018-03-27T00:35:47.723Z,0.00
2018-03-27T00:36:47.741Z,0.00
2018-03-27T00:37:47.760Z,0.00
2018-03-27T00:38:47.781Z,0.00
2018-03-27T00:39:47.796Z,0.00
2018-03-27T00:40:47.815Z,0.00
2018-03-27T00:41:47.831Z,0.00
2018-03-27T00:42:47.850Z,0.00
2018-03-27T00:43:47.871Z,0.00
2018-03-27T00:44:47.887Z,0.00
2018-03-27T00:45:47.906Z,0.00
2018-03-27T00:46:47.926Z,0.00
2018-03-27T00:47:47.946Z,0.00
2018-03-27T00:48:47.965Z,0.00
2018-03-27T00:49:47.985Z,0.00
2018-03-27T00:50:47.996Z,0.00
2018-03-27T00:51:48.024Z,0.00
2018-03-27T00:52:48.034Z,0.00
2018-03-27T00:53:48.054Z,0.00
2018-03-27T00:54:48.076Z,0.00
2018-03-27T00:55:48.093Z,0.00
2018-03-27T00:56:48.113Z,0.00
2018-03-27T00:57:48.130Z,0.00
2018-03-27T00:58:48.147Z,0.00
2018-03-27T00:59:48.168Z,0.00
2018-03-27T01:00:48.180Z,0.00
2018-03-27T01:01:48.202Z,0.00
2018-03-27T01:02:48.226Z,0.00
2018-03-27T01:03:48.240Z,0.00
2018-03-27T01:04:48.258Z,0.00
2018-03-27T01:05:48.275Z,0.00
2018-03-27T01:06:48.303Z,0.00
2018-03-27T01:07:48.314Z,0.00
2018-03-27T01:08:48.331Z,0.00
2018-03-27T01:09:48.348Z,0.00
2018-03-27T01:10:48.369Z,0.00
2018-03-27T01:11:48.391Z,0.00
2018-03-27T01:12:48.408Z,0.00
2018-03-27T01:13:48.432Z,0.00
2018-03-27T01:14:48.448Z,0.00
2018-03-27T01:15:48.464Z,0.00
2018-03-27T01:16:48.480Z,0.00
2018-03-27T01:17:48.498Z,0.00
2018-03-27T01:18:48.519Z,0.00
2018-03-27T01:19:48.537Z,0.00
2018-03-27T01:20:48.556Z,0.00
2018-03-27T01:21:48.573Z,0.00
2018-03-27T01:22:48.597Z,0.00
2018-03-27T01:23:48.610Z,0.00
2018-03-27T01:24:48.629Z,0.00
2018-03-27T01:25:48.651Z,0.00
2018-03-27T01:26:48.663Z,0.00
2018-03-27T01:27:48.705Z,0.00
2018-03-27T01:28:48.702Z,0.00
2018-03-27T01:29:48.718Z,0.00
2018-03-27T01:30:48.743Z,0.00
2018-03-27T01:31:48.760Z,0.00
2018-03-27T01:32:48.781Z,0.00
2018-03-27T01:33:48.796Z,0.00
2018-03-27T01:34:48.818Z,0.00
2018-03-27T01:35:48.836Z,0.00
2018-03-27T01:36:48.852Z,0.00
2018-03-27T01:37:48.873Z,0.00
2018-03-27T01:38:48.887Z,0.00
2018-03-27T01:39:48.907Z,0.00
2018-03-27T01:40:48.927Z,0.00
2018-03-27T01:41:49.198Z,0.00
2018-03-27T01:42:48.962Z,0.00
2018-03-27T01:43:48.982Z,0.00
2018-03-27T01:44:49.004Z,0.00
2018-03-27T01:45:49.017Z,0.00
2018-03-27T01:46:49.042Z,0.00
2018-03-27T01:47:49.057Z,0.00
2018-03-27T01:48:49.076Z,0.00
2018-03-27T01:49:49.100Z,0.00
2018-03-27T01:50:49.116Z,0.00
2018-03-27T01:51:49.382Z,0.00
2018-03-27T01:52:49.157Z,0.00
2018-03-27T01:53:49.171Z,0.00
2018-03-27T01:54:49.187Z,0.00
2018-03-27T01:55:49.211Z,0.00
2018-03-27T01:56:49.225Z,0.00
2018-03-27T01:57:49.246Z,0.00
2018-03-27T01:58:49.261Z,0.00
2018-03-27T01:59:49.284Z,0.00
2018-03-27T02:00:49.300Z,0.00
2018-03-27T02:01:49.575Z,0.00
2018-03-27T02:02:49.336Z,0.00
2018-03-27T02:03:49.357Z,0.00
2018-03-27T02:04:49.376Z,0.00
2018-03-27T02:05:49.394Z,0.00
2018-03-27T02:06:49.410Z,0.00
2018-03-27T02:07:49.430Z,0.00
2018-03-27T02:08:49.451Z,0.00
2018-03-27T02:09:49.472Z,0.00
2018-03-27T02:10:49.486Z,0.00
2018-03-27T02:11:49.508Z,0.00
2018-03-27T02:12:49.529Z,0.00
2018-03-27T02:13:49.544Z,0.00
2018-03-27T02:14:49.570Z,0.00
2018-03-27T02:15:49.636Z,0.00
2018-03-27T02:16:49.600Z,0.00
2018-03-27T02:17:49.621Z,0.00
2018-03-27T02:18:49.641Z,0.00
2018-03-27T02:19:49.655Z,0.00
2018-03-27T02:20:49.677Z,0.00
2018-03-27T02:21:49.695Z,0.00
2018-03-27T02:22:49.710Z,0.00
2018-03-27T02:23:49.735Z,0.00
2018-03-27T02:24:49.749Z,0.00
2018-03-27T02:25:49.767Z,0.00
2018-03-27T02:26:49.785Z,0.00
2018-03-27T02:27:49.809Z,0.00
2018-03-27T02:28:49.825Z,0.00
2018-03-27T02:29:49.844Z,0.00
2018-03-27T02:30:49.861Z,0.00
2018-03-27T02:31:49.888Z,0.00
2018-03-27T02:32:50.151Z,0.00
2018-03-27T02:33:49.927Z,0.00
2018-03-27T02:34:49.948Z,0.00
2018-03-27T02:35:49.959Z,0.00
2018-03-27T02:36:49.972Z,0.00
2018-03-27T02:37:50.001Z,0.00
2018-03-27T02:38:50.015Z,0.00
2018-03-27T02:39:50.029Z,0.00
2018-03-27T02:40:50.052Z,0.00
2018-03-27T02:41:50.071Z,0.00
2018-03-27T02:42:50.090Z,0.00
2018-03-27T02:43:50.108Z,0.00
2018-03-27T02:44:50.125Z,0.00
2018-03-27T02:45:50.145Z,0.00
2018-03-27T02:46:50.163Z,0.00
2018-03-27T02:47:50.180Z,0.00
2018-03-27T02:48:50.206Z,0.00
2018-03-27T02:49:50.221Z,0.00
2018-03-27T02:50:50.238Z,0.00
2018-03-27T02:51:50.256Z,0.00
2018-03-27T02:52:50.273Z,0.00
2018-03-27T02:53:50.295Z,0.00
2018-03-27T02:54:50.314Z,0.00
2018-03-27T02:55:50.333Z,0.00
2018-03-27T02:56:50.349Z,0.00
2018-03-27T02:57:50.369Z,0.00
2018-03-27T02:58:50.390Z,0.00
2018-03-27T02:59:50.412Z,0.00
2018-03-27T03:00:50.422Z,0.00
2018-03-27T03:01:50.443Z,0.00
2018-03-27T03:02:50.463Z,0.00
2018-03-27T03:03:50.491Z,0.00
2018-03-27T03:04:50.501Z,0.00
2018-03-27T03:05:50.517Z,0.00
2018-03-27T03:06:50.540Z,0.00
2018-03-27T03:07:50.561Z,0.00
2018-03-27T03:08:50.576Z,0.00
2018-03-27T03:09:50.592Z,0.00
2018-03-27T03:10:50.611Z,0.00
2018-03-27T03:11:50.632Z,0.00
2018-03-27T03:12:50.655Z,0.00
2018-03-27T03:13:50.668Z,0.00
2018-03-27T03:14:50.688Z,0.00
2018-03-27T03:15:50.707Z,0.00
2018-03-27T03:16:50.731Z,0.00
2018-03-27T03:17:50.742Z,0.00
2018-03-27T03:18:50.766Z,0.00
2018-03-27T03:19:51.038Z,0.00
2018-03-27T03:20:50.800Z,0.00
2018-03-27T03:21:50.816Z,0.00
2018-03-27T03:22:50.841Z,0.00
2018-03-27T03:23:50.856Z,0.00
2018-03-27T03:24:50.873Z,0.00
2018-03-27T03:25:50.891Z,0.00
2018-03-27T03:26:50.914Z,0.00
2018-03-27T03:27:50.936Z,0.00
2018-03-27T03:28:50.951Z,0.00
2018-03-27T03:29:50.966Z,0.00
2018-03-27T03:30:50.990Z,0.00
2018-03-27T03:31:51.006Z,0.00
2018-03-27T03:32:51.021Z,0.00
2018-03-27T03:33:51.044Z,0.00
2018-03-27T03:34:51.065Z,0.00
2018-03-27T03:35:51.082Z,0.00
2018-03-27T03:36:51.095Z,0.00
2018-03-27T03:37:51.120Z,0.00
2018-03-27T03:38:51.136Z,0.00
2018-03-27T03:39:51.160Z,0.00
2018-03-27T03:40:51.172Z,0.00
2018-03-27T03:41:51.190Z,0.00
2018-03-27T03:42:51.209Z,0.00
2018-03-27T03:43:51.234Z,0.00
2018-03-27T03:44:51.245Z,0.00
2018-03-27T03:45:51.269Z,0.00
2018-03-27T03:46:51.285Z,0.00
2018-03-27T03:47:51.308Z,0.00
2018-03-27T03:48:51.320Z,0.00
2018-03-27T03:49:51.343Z,0.00
2018-03-27T03:50:51.358Z,0.00
2018-03-27T03:51:51.380Z,0.00
2018-03-27T03:52:51.400Z,0.00
2018-03-27T03:53:51.415Z,0.00
2018-03-27T03:54:51.444Z,0.00
2018-03-27T03:55:51.454Z,0.00
2018-03-27T03:56:51.469Z,0.00
2018-03-27T03:57:51.488Z,0.00
2018-03-27T03:58:51.510Z,0.00
2018-03-27T03:59:51.528Z,0.00
2018-03-27T04:00:51.549Z,0.00
2018-03-27T04:01:51.568Z,0.00
2018-03-27T04:02:51.589Z,0.00
2018-03-27T04:03:51.608Z,0.00
2018-03-27T04:04:51.622Z,0.00
2018-03-27T04:05:51.639Z,0.00
2018-03-27T04:06:51.658Z,0.00
2018-03-27T04:07:51.685Z,0.00
2018-03-27T04:08:51.700Z,0.00
2018-03-27T04:09:51.719Z,0.00
2018-03-27T04:10:51.738Z,0.00
2018-03-27T04:11:51.753Z,0.00
2018-03-27T04:12:51.777Z,0.00
2018-03-27T04:13:51.788Z,0.00
2018-03-27T04:14:51.808Z,0.00
2018-03-27T04:15:51.832Z,0.00
2018-03-27T04:16:51.858Z,0.00
2018-03-27T04:17:51.863Z,0.00
2018-03-27T04:18:51.883Z,0.00
2018-03-27T04:19:51.930Z,0.00
2018-03-27T04:20:51.921Z,0.00
2018-03-27T04:21:51.949Z,0.00
2018-03-27T04:22:51.961Z,0.00
2018-03-27T04:23:51.981Z,0.00
2018-03-27T04:24:51.992Z,0.00
2018-03-27T04:25:52.013Z,0.00
2018-03-27T04:26:52.032Z,0.00
2018-03-27T04:27:52.048Z,0.00
2018-03-27T04:28:52.076Z,0.00
2018-03-27T04:29:52.088Z,0.00
2018-03-27T04:30:52.102Z,0.00
2018-03-27T04:31:52.128Z,0.00
2018-03-27T04:32:52.142Z,0.00
2018-03-27T04:33:52.166Z,0.00
2018-03-27T04:34:52.444Z,0.00
2018-03-27T04:35:52.200Z,0.00
2018-03-27T04:36:52.211Z,0.00
2018-03-27T04:37:52.233Z,0.00
2018-03-27T04:38:52.252Z,0.00
2018-03-27T04:39:52.277Z,0.00
2018-03-27T04:40:52.297Z,0.00
2018-03-27T04:41:52.306Z,0.00
2018-03-27T04:42:52.327Z,0.00
2018-03-27T04:43:52.345Z,0.00
2018-03-27T04:44:52.366Z,0.00
2018-03-27T04:45:52.386Z,0.00
2018-03-27T04:46:52.403Z,0.00
2018-03-27T04:47:52.433Z,0.00
2018-03-27T04:48:52.437Z,0.00
2018-03-27T04:49:52.457Z,0.00
2018-03-27T04:50:52.476Z,0.00
2018-03-27T04:51:52.491Z,0.00
2018-03-27T04:52:52.512Z,0.00
2018-03-27T04:53:52.531Z,0.00
2018-03-27T04:54:52.550Z,0.00
2018-03-27T04:55:52.573Z,0.00
2018-03-27T04:56:52.586Z,0.00
2018-03-27T04:57:52.616Z,0.00
2018-03-27T04:58:52.626Z,0.00
2018-03-27T04:59:52.641Z,0.00
2018-03-27T05:00:52.661Z,0.00
2018-03-27T05:01:52.687Z,0.00
2018-03-27T05:02:52.698Z,0.00
2018-03-27T05:03:52.723Z,5.63
2018-03-27T05:04:52.737Z,5.63
2018-03-27T05:05:52.751Z,5.63
2018-03-27T05:06:52.779Z,5.63
2018-03-27T05:07:52.799Z,5.63
2018-03-27T05:08:52.819Z,5.63
2018-03-27T05:09:52.829Z,5.63
2018-03-27T05:10:53.100Z,5.63
2018-03-27T05:11:52.876Z,5.63
2018-03-27T05:12:52.889Z,5.63
2018-03-27T05:13:52.910Z,5.63
2018-03-27T05:14:52.929Z,5.63
2018-03-27T05:15:53.189Z,5.63
2018-03-27T05:16:52.955Z,11.25
2018-03-27T05:17:52.981Z,11.25
2018-03-27T05:18:52.994Z,11.25
2018-03-27T05:19:53.015Z,11.25
2018-03-27T05:20:53.030Z,16.88
2018-03-27T05:21:53.048Z,16.88
2018-03-27T05:22:53.069Z,16.88
2018-03-27T05:23:53.089Z,16.88
2018-03-27T05:24:53.105Z,22.50
2018-03-27T05:25:53.376Z,22.50
2018-03-27T05:26:53.143Z,22.50
2018-03-27T05:27:53.169Z,22.50
2018-03-27T05:28:53.184Z,22.50
2018-03-27T05:29:53.203Z,28.13
2018-03-27T05:30:53.213Z,28.13
2018-03-27T05:31:53.234Z,28.13
2018-03-27T05:32:53.335Z,28.13
2018-03-27T05:33:53.272Z,33.75
2018-03-27T05:34:53.291Z,33.75
2018-03-27T05:35:53.308Z,33.75
2018-03-27T05:36:53.337Z,33.75
2018-03-27T05:37:53.348Z,33.75
2018-03-27T05:38:53.368Z,33.75
2018-03-27T05:39:53.387Z,33.75
2018-03-27T05:40:53.654Z,39.38
2018-03-27T05:41:53.424Z,39.38
2018-03-27T05:42:53.441Z,39.38
2018-03-27T05:43:53.458Z,45.00
2018-03-27T05:44:53.482Z,45.00
2018-03-27T05:45:53.493Z,50.63
2018-03-27T05:46:53.512Z,50.63
2018-03-27T05:47:53.533Z,56.25
2018-03-27T05:48:53.552Z,56.25
2018-03-27T05:49:53.569Z,61.88
2018-03-27T05:50:53.588Z,61.88
2018-03-27T05:51:53.612Z,61.88
2018-03-27T05:52:53.628Z,67.50
2018-03-27T05:53:53.642Z,67.50
2018-03-27T05:54:53.665Z,73.13
2018-03-27T05:55:53.722Z,73.13
2018-03-27T05:56:53.697Z,78.75
2018-03-27T05:57:53.718Z,78.75
2018-03-27T05:58:53.736Z,84.38
2018-03-27T05:59:53.757Z,84.38
2018-03-27T06:00:53.775Z,84.38
2018-03-27T06:01:53.802Z,90.00
2018-03-27T06:02:53.812Z,90.00
2018-03-27T06:03:53.831Z,95.63
2018-03-27T06:04:53.852Z,95.63
2018-03-27T06:05:53.866Z,95.63
2018-03-27T06:06:53.886Z,95.63
2018-03-27T06:07:53.906Z,95.63
2018-03-27T06:08:53.921Z,95.63
2018-03-27T06:09:53.942Z,101.25
2018-03-27T06:10:53.962Z,101.25
2018-03-27T06:11:53.983Z,101.25
2018-03-27T06:12:53.995Z,101.25
2018-03-27T06:13:54.020Z,101.25
2018-03-27T06:14:54.041Z,101.25
2018-03-27T06:15:54.052Z,101.25
2018-03-27T06:16:54.071Z,101.25
2018-03-27T06:17:54.096Z,101.25
2018-03-27T06:18:54.114Z,106.88
2018-03-27T06:19:54.136Z,106.88
2018-03-27T06:20:54.145Z,106.88
2018-03-27T06:21:54.169Z,112.50
2018-03-27T06:22:54.189Z,112.50
2018-03-27T06:23:54.209Z,112.50
2018-03-27T06:24:54.221Z,118.13
2018-03-27T06:25:54.241Z,123.75
2018-03-27T06:26:54.267Z,123.75
2018-03-27T06:27:54.284Z,123.75
2018-03-27T06:28:54.302Z,129.38
2018-03-27T06:29:54.318Z,135.00
2018-03-27T06:30:54.344Z,135.00
2018-03-27T06:31:54.355Z,146.25
2018-03-27T06:32:54.374Z,151.88
2018-03-27T06:33:54.420Z,157.50
2018-03-27T06:34:54.410Z,168.75
2018-03-27T06:35:54.429Z,174.38
2018-03-27T06:36:54.452Z,174.38
2018-03-27T06:37:54.464Z,180.00
2018-03-27T06:38:54.485Z,174.38
2018-03-27T06:39:54.505Z,180.00
2018-03-27T06:40:54.519Z,168.75
2018-03-27T06:41:54.540Z,168.75
2018-03-27T06:42:54.564Z,174.38
2018-03-27T06:43:54.580Z,185.63
2018-03-27T06:44:54.611Z,196.88
2018-03-27T06:45:54.619Z,213.75
2018-03-27T06:46:54.635Z,219.38
2018-03-27T06:47:54.659Z,225.00
2018-03-27T06:48:54.678Z,230.63
2018-03-27T06:49:54.694Z,236.25
2018-03-27T06:50:54.720Z,236.25
2018-03-27T06:51:54.731Z,241.88
2018-03-27T06:52:54.807Z,247.50
2018-03-27T06:53:54.770Z,247.50
2018-03-27T06:54:54.790Z,253.13
2018-03-27T06:55:54.809Z,258.75
2018-03-27T06:56:54.831Z,258.75
2018-03-27T06:57:54.851Z,264.38
2018-03-27T06:58:54.880Z,270.00
2018-03-27T06:59:54.896Z,270.00
2018-03-27T07:00:54.905Z,275.63
2018-03-27T07:01:54.929Z,286.88
2018-03-27T07:02:54.944Z,286.88
2018-03-27T07:03:54.964Z,292.50
2018-03-27T07:04:54.983Z,298.13
2018-03-27T07:05:55.007Z,298.13
2018-03-27T07:06:55.031Z,303.75
2018-03-27T07:07:55.043Z,309.38
2018-03-27T07:08:55.065Z,315.00
2018-03-27T07:09:55.090Z,326.25
2018-03-27T07:10:55.101Z,337.50
2018-03-27T07:11:55.161Z,343.13
2018-03-27T07:12:55.137Z,348.75
2018-03-27T07:13:55.159Z,348.75
2018-03-27T07:14:55.215Z,360.00
2018-03-27T07:15:55.199Z,354.38
2018-03-27T07:16:55.216Z,360.00
2018-03-27T07:17:55.236Z,365.63
2018-03-27T07:18:55.268Z,365.63
2018-03-27T07:19:55.277Z,376.88
2018-03-27T07:20:55.295Z,376.88
2018-03-27T07:21:55.314Z,393.75
2018-03-27T07:22:55.333Z,393.75
2018-03-27T07:23:55.351Z,388.13
2018-03-27T07:24:55.370Z,382.50
2018-03-27T07:25:55.392Z,382.50
2018-03-27T07:26:55.436Z,376.88
2018-03-27T07:27:55.450Z,376.88
2018-03-27T07:28:55.446Z,376.88
2018-03-27T07:29:55.471Z,376.88
2018-03-27T07:30:55.490Z,382.50
2018-03-27T07:31:55.511Z,388.13
2018-03-27T07:32:55.536Z,388.13
2018-03-27T07:33:55.551Z,388.13
2018-03-27T07:34:55.571Z,388.13
2018-03-27T07:35:55.590Z,388.13
2018-03-27T07:36:55.610Z,393.75
2018-03-27T07:37:55.636Z,399.38
2018-03-27T07:38:55.649Z,410.63
2018-03-27T07:39:55.666Z,416.25
2018-03-27T07:40:55.686Z,421.88
2018-03-27T07:41:55.707Z,421.88
2018-03-27T07:42:55.728Z,416.25
2018-03-27T07:43:55.779Z,416.25
2018-03-27T07:44:55.769Z,416.25
2018-03-27T07:45:55.788Z,416.25
2018-03-27T07:46:55.807Z,421.88
2018-03-27T07:47:55.829Z,421.88
2018-03-27T07:48:55.850Z,421.88
2018-03-27T07:49:55.865Z,421.88
2018-03-27T07:50:55.887Z,421.88
2018-03-27T07:51:55.907Z,421.88
2018-03-27T07:52:55.931Z,433.13
2018-03-27T07:53:55.947Z,433.13
2018-03-27T07:54:55.984Z,438.75
2018-03-27T07:55:55.985Z,444.38
2018-03-27T07:56:56.014Z,444.38
2018-03-27T07:57:56.031Z,444.38
2018-03-27T07:58:56.053Z,450.00
2018-03-27T07:59:56.077Z,444.38
2018-03-27T08:00:56.147Z,450.00
2018-03-27T08:01:56.110Z,450.00
2018-03-27T08:02:56.132Z,450.00
2018-03-27T08:03:56.150Z,455.63
2018-03-27T08:04:56.170Z,455.63
2018-03-27T08:05:56.191Z,450.00
2018-03-27T08:06:56.214Z,444.38
2018-03-27T08:07:56.234Z,444.38
2018-03-27T08:08:56.255Z,450.00
2018-03-27T08:09:56.282Z,450.00
2018-03-27T08:10:56.301Z,450.00
2018-03-27T08:11:56.317Z,455.63
2018-03-27T08:12:56.335Z,466.88
2018-03-27T08:13:56.355Z,466.88
2018-03-27T08:14:56.380Z,472.50
2018-03-27T08:15:56.398Z,478.13
2018-03-27T08:16:56.420Z,478.13
2018-03-27T08:17:56.448Z,483.75
2018-03-27T08:18:56.467Z,489.38
2018-03-27T08:19:56.483Z,500.63
2018-03-27T08:20:56.503Z,500.63
2018-03-27T08:21:56.526Z,506.25
2018-03-27T08:22:56.544Z,506.25
2018-03-27T08:23:56.651Z,506.25
2018-03-27T08:24:56.598Z,511.88
2018-03-27T08:25:56.617Z,511.88
2018-03-27T08:26:56.628Z,517.50
2018-03-27T08:27:56.679Z,523.13
2018-03-27T08:28:56.675Z,523.13
2018-03-27T08:29:56.693Z,523.13
2018-03-27T08:30:56.714Z,528.75
2018-03-27T08:31:56.733Z,528.75
2018-03-27T08:32:56.754Z,534.38
2018-03-27T08:33:56.783Z,540.00
2018-03-27T08:34:56.842Z,540.00
2018-03-27T08:35:56.814Z,545.63
2018-03-27T08:36:56.838Z,556.88
2018-03-27T08:37:56.859Z,551.25
2018-03-27T08:38:56.883Z,556.88
2018-03-27T08:39:56.904Z,562.50
2018-03-27T08:40:56.926Z,562.50
2018-03-27T08:41:56.944Z,562.50
2018-03-27T08:42:56.969Z,568.13
2018-03-27T08:43:56.992Z,568.13
2018-03-27T08:44:57.008Z,573.75
2018-03-27T08:45:57.030Z,579.38
2018-03-27T08:46:57.054Z,585.00
2018-03-27T08:47:57.077Z,590.63
2018-03-27T08:48:57.093Z,596.25
2018-03-27T08:49:57.123Z,601.88
2018-03-27T08:50:57.145Z,601.88
2018-03-27T08:51:57.159Z,607.50
2018-03-27T08:52:57.188Z,618.75
2018-03-27T08:53:57.212Z,624.38
2018-03-27T08:54:57.224Z,630.00
2018-03-27T08:55:57.255Z,635.63
2018-03-27T08:56:57.269Z,635.63
2018-03-27T08:57:57.295Z,646.88
2018-03-27T08:58:57.323Z,641.25
2018-03-27T08:59:57.336Z,652.50
2018-03-27T09:00:57.357Z,658.13
2018-03-27T09:01:57.379Z,663.75
2018-03-27T09:02:57.397Z,663.75
2018-03-27T09:03:57.423Z,675.00
2018-03-27T09:04:57.455Z,686.25
2018-03-27T09:05:57.467Z,691.88
2018-03-27T09:06:57.490Z,703.13
2018-03-27T09:07:57.515Z,714.38
2018-03-27T09:08:57.544Z,725.63
2018-03-27T09:09:57.555Z,731.25
2018-03-27T09:10:57.583Z,748.13
2018-03-27T09:11:57.601Z,748.13
2018-03-27T09:12:57.629Z,759.38
2018-03-27T09:13:57.645Z,770.63
2018-03-27T09:14:57.668Z,781.88
2018-03-27T09:15:57.687Z,787.50
2018-03-27T09:16:57.718Z,793.13
2018-03-27T09:17:57.735Z,798.75
2018-03-27T09:18:57.760Z,798.75
2018-03-27T09:19:57.776Z,798.75
2018-03-27T09:20:57.802Z,798.75
2018-03-27T09:21:57.822Z,804.38
2018-03-27T09:22:57.845Z,798.75
2018-03-27T09:23:57.866Z,804.38
2018-03-27T09:24:57.890Z,810.00
2018-03-27T09:25:57.920Z,815.63
2018-03-27T09:26:57.935Z,810.00
2018-03-27T09:27:57.961Z,810.00
2018-03-27T09:28:57.981Z,798.75
2018-03-27T09:29:58.005Z,793.13
2018-03-27T09:30:58.035Z,787.50
2018-03-27T09:31:58.055Z,781.88
2018-03-27T09:32:58.077Z,781.88
2018-03-27T09:33:58.093Z,793.13
2018-03-27T09:34:58.128Z,793.13
2018-03-27T09:35:58.144Z,793.13
2018-03-27T09:36:58.170Z,793.13
2018-03-27T09:37:58.194Z,781.88
2018-03-27T09:38:58.215Z,770.63
2018-03-27T09:39:58.239Z,770.63
2018-03-27T09:40:58.255Z,770.63
2018-03-27T09:41:58.282Z,765.00
2018-03-27T09:42:58.309Z,759.38
2018-03-27T09:43:58.328Z,759.38
2018-03-27T09:44:58.349Z,759.38
2018-03-27T09:45:58.375Z,770.63
2018-03-27T09:46:58.395Z,793.13
2018-03-27T09:47:58.420Z,810.00
2018-03-27T09:48:58.446Z,821.25
2018-03-27T09:49:58.469Z,832.50
2018-03-27T09:50:58.529Z,821.25
2018-03-27T09:51:58.510Z,821.25
2018-03-27T09:52:58.536Z,821.25
2018-03-27T09:53:58.554Z,815.63
2018-03-27T09:54:58.582Z,815.63
2018-03-27T09:55:58.604Z,815.63
2018-03-27T09:56:58.625Z,815.63
2018-03-27T09:57:58.653Z,810.00
2018-03-27T09:58:58.674Z,804.38
2018-03-27T09:59:58.698Z,793.13
2018-03-27T10:00:58.719Z,776.25
2018-03-27T10:01:58.740Z,748.13
2018-03-27T10:02:58.769Z,708.75
2018-03-27T10:03:58.795Z,675.00
2018-03-27T10:04:58.814Z,635.63
2018-03-27T10:05:58.842Z,613.13
2018-03-27T10:06:58.860Z,585.00
2018-03-27T10:07:58.890Z,568.13
2018-03-27T10:08:58.903Z,545.63
2018-03-27T10:09:58.929Z,534.38
2018-03-27T10:10:58.955Z,523.13
2018-03-27T10:11:58.974Z,489.38
2018-03-27T10:12:58.999Z,450.00
2018-03-27T10:13:59.023Z,421.88
2018-03-27T10:14:59.049Z,416.25
2018-03-27T10:15:59.072Z,427.50
2018-03-27T10:16:59.099Z,421.88
2018-03-27T10:17:59.113Z,421.88
2018-03-27T10:18:59.136Z,421.88
2018-03-27T10:19:59.158Z,421.88
2018-03-27T10:20:59.188Z,427.50
2018-03-27T10:21:59.208Z,427.50
2018-03-27T10:22:59.231Z,438.75
2018-03-27T10:23:59.255Z,427.50
2018-03-27T10:24:59.272Z,433.13
2018-03-27T10:25:59.297Z,444.38
2018-03-27T10:26:59.318Z,450.00
2018-03-27T10:27:59.338Z,450.00
2018-03-27T10:28:59.363Z,455.63
2018-03-27T10:29:59.377Z,461.25
2018-03-27T10:30:59.400Z,466.88
2018-03-27T10:31:59.423Z,472.50
2018-03-27T10:32:59.499Z,478.13
2018-03-27T10:33:59.471Z,483.75
2018-03-27T10:34:59.494Z,495.00
2018-03-27T10:35:59.513Z,500.63
2018-03-27T10:36:59.530Z,517.50
2018-03-27T10:37:59.560Z,540.00
2018-03-27T10:38:59.582Z,556.88
2018-03-27T10:39:59.602Z,579.38
2018-03-27T10:40:59.621Z,601.88
2018-03-27T10:41:59.653Z,630.00
2018-03-27T10:42:59.671Z,663.75
2018-03-27T10:43:59.688Z,697.50
2018-03-27T10:44:59.708Z,742.50
2018-03-27T10:45:59.731Z,793.13
2018-03-27T10:46:59.765Z,843.75
2018-03-27T10:47:59.780Z,905.63
2018-03-27T10:48:59.800Z,978.75
2018-03-27T10:49:59.819Z,1051.88
2018-03-27T10:50:59.843Z,1136.25
2018-03-27T10:51:59.876Z,1220.63
2018-03-27T10:52:59.890Z,1299.38
2018-03-27T10:53:59.912Z,1366.88
2018-03-27T10:54:59.941Z,1434.38
2018-03-27T10:55:59.957Z,1108.13
2018-03-27T10:56:59.979Z,1192.50
2018-03-27T10:58:00.004Z,1080.00
2018-03-27T10:59:00.023Z,1080.00
2018-03-27T11:00:00.056Z,1096.88
2018-03-27T11:01:00.317Z,1080.00
2018-03-27T11:02:00.092Z,978.75
2018-03-27T11:03:00.124Z,1001.25
2018-03-27T11:04:00.156Z,877.50
2018-03-27T11:05:00.164Z,866.25
2018-03-27T11:06:00.190Z,888.75
2018-03-27T11:07:00.216Z,933.75
2018-03-27T11:08:00.242Z,967.50
2018-03-27T11:09:00.265Z,1096.88
2018-03-27T11:10:00.341Z,1209.38
2018-03-27T11:11:00.560Z,1051.88
2018-03-27T11:12:00.336Z,967.50
2018-03-27T11:13:00.360Z,826.88
2018-03-27T11:14:00.380Z,731.25
2018-03-27T11:15:00.405Z,658.13
2018-03-27T11:16:00.436Z,596.25
2018-03-27T11:17:00.457Z,556.88
2018-03-27T11:18:00.478Z,551.25
2018-03-27T11:19:00.500Z,562.50
2018-03-27T11:20:00.526Z,568.13
2018-03-27T11:21:00.551Z,528.75
2018-03-27T11:22:00.579Z,483.75
2018-03-27T11:23:00.601Z,438.75
2018-03-27T11:24:00.625Z,405.00
2018-03-27T11:25:00.646Z,393.75
2018-03-27T11:26:00.676Z,393.75
2018-03-27T11:27:00.695Z,388.13
2018-03-27T11:28:00.720Z,388.13
2018-03-27T11:29:00.746Z,376.88
2018-03-27T11:30:00.773Z,360.00
2018-03-27T11:31:00.793Z,348.75
2018-03-27T11:32:00.819Z,343.13
2018-03-27T11:33:00.839Z,343.13
2018-03-27T11:34:00.870Z,337.50
2018-03-27T11:35:00.889Z,337.50
2018-03-27T11:36:00.910Z,331.88
2018-03-27T11:37:00.935Z,331.88
2018-03-27T11:38:00.957Z,331.88
2018-03-27T11:39:00.980Z,326.25
2018-03-27T11:40:01.006Z,320.63
2018-03-27T11:41:01.027Z,326.25
2018-03-27T11:42:01.052Z,331.88
2018-03-27T11:43:01.077Z,343.13
2018-03-27T11:44:01.107Z,354.38
2018-03-27T11:45:01.123Z,360.00
2018-03-27T11:46:01.144Z,360.00
2018-03-27T11:47:01.165Z,365.63
2018-03-27T11:48:01.195Z,376.88
2018-03-27T11:49:01.210Z,399.38
2018-03-27T11:50:01.235Z,410.63
2018-03-27T11:51:01.264Z,416.25
2018-03-27T11:52:01.288Z,427.50
2018-03-27T11:53:01.308Z,438.75
2018-03-27T11:54:01.328Z,455.63
2018-03-27T11:55:01.350Z,466.88
2018-03-27T11:56:01.377Z,472.50
2018-03-27T11:57:01.398Z,478.13
2018-03-27T11:58:01.422Z,495.00
2018-03-27T11:59:01.441Z,528.75
2018-03-27T12:00:01.473Z,568.13
2018-03-27T12:01:01.488Z,624.38
2018-03-27T12:02:01.509Z,669.38
2018-03-27T12:03:01.535Z,697.50
2018-03-27T12:04:01.553Z,720.00
2018-03-27T12:05:01.582Z,720.00
2018-03-27T12:06:01.614Z,708.75
2018-03-27T12:07:01.642Z,703.13
2018-03-27T12:08:01.652Z,675.00
2018-03-27T12:09:01.668Z,646.88
2018-03-27T12:10:01.694Z,646.88
2018-03-27T12:11:01.713Z,663.75
2018-03-27T12:12:01.738Z,680.63
2018-03-27T12:13:01.762Z,725.63
2018-03-27T12:14:01.782Z,742.50
2018-03-27T12:15:01.807Z,793.13
2018-03-27T12:16:01.828Z,866.25
2018-03-27T12:17:01.852Z,978.75
2018-03-27T12:18:01.877Z,1158.75
2018-03-27T12:19:01.924Z,1732.50
2018-03-27T12:20:01.927Z,3375.00
2018-03-27T12:21:01.950Z,4196.25
2018-03-27T12:22:01.971Z,4404.38
2018-03-27T12:23:01.997Z,3661.88
2018-03-27T12:24:02.019Z,2137.50
2018-03-27T12:25:02.045Z,1873.13
2018-03-27T12:26:02.068Z,1305.00
2018-03-27T12:27:02.096Z,1276.88
2018-03-27T12:28:02.129Z,1265.63
2018-03-27T12:29:02.147Z,1153.13
2018-03-27T12:30:02.173Z,1102.50
2018-03-27T12:31:02.201Z,1057.50
2018-03-27T12:32:02.236Z,995.63
2018-03-27T12:33:02.251Z,961.88
2018-03-27T12:34:02.285Z,945.00
2018-03-27T12:35:02.308Z,928.13
2018-03-27T12:36:02.333Z,911.25
2018-03-27T12:37:02.364Z,916.88
2018-03-27T12:38:02.390Z,939.38
2018-03-27T12:39:02.416Z,945.00
2018-03-27T12:40:02.440Z,967.50
2018-03-27T12:41:02.464Z,995.63
2018-03-27T12:42:02.491Z,1085.63
2018-03-27T12:43:02.523Z,1366.88
2018-03-27T12:44:02.541Z,1108.13
2018-03-27T12:45:02.575Z,1063.13
2018-03-27T12:46:02.603Z,1023.75
2018-03-27T12:47:02.622Z,990.00
2018-03-27T12:48:02.655Z,950.63
2018-03-27T12:49:02.680Z,945.00